createdAt,value
2019-04-10T00:00:04.323Z,0.50
2019-04-10T00:02:39.492Z,0.47
2019-04-10T00:05:12.339Z,0.43
2019-04-10T00:07:45.798Z,0.36
2019-04-10T00:10:19.399Z,0.34
2019-04-10T00:12:52.209Z,0.32
2019-04-10T00:15:24.875Z,0.29
2019-04-10T00:17:57.757Z,0.29
2019-04-10T00:20:32.454Z,0.19
2019-04-10T00:23:04.973Z,0.19
2019-04-10T00:25:41.161Z,0.20
2019-04-10T00:28:14.907Z,0.18
2019-04-10T00:30:49.396Z,0.18
2019-04-10T00:33:22.896Z,0.11
2019-04-10T00:35:56.037Z,0.11
2019-04-10T00:38:29.565Z,0.06
2019-04-10T00:41:02.431Z,0.02
2019-04-10T00:43:35.043Z,0.01
2019-04-10T00:46:08.165Z,-0.14
2019-04-10T00:48:41.772Z,-0.14
2019-04-10T00:51:15.216Z,-0.31
2019-04-10T00:53:49.663Z,-0.31
2019-04-10T00:56:22.510Z,-0.38
2019-04-10T00:58:55.448Z,-0.38
2019-04-10T01:01:27.777Z,-0.43
2019-04-10T01:04:02.693Z,-0.48
2019-04-10T01:06:35.750Z,-0.53
2019-04-10T01:09:10.304Z,-0.61
2019-04-10T01:11:43.409Z,-0.62
2019-04-10T01:14:16.053Z,-0.63
2019-04-10T01:16:49.436Z,-0.64
2019-04-10T01:19:23.934Z,-0.63
2019-04-10T01:21:56.966Z,-0.65
2019-04-10T01:24:30.003Z,-0.65
2019-04-10T01:27:03.419Z,-0.66
2019-04-10T01:29:36.237Z,-0.66
2019-04-10T01:32:09.756Z,-0.61
2019-04-10T01:34:43.180Z,-0.58
2019-04-10T01:37:16.644Z,-0.57
2019-04-10T01:39:50.656Z,-0.58
2019-04-10T01:42:23.416Z,-0.62
2019-04-10T01:44:56.004Z,-0.63
2019-04-10T01:47:31.015Z,-0.64
2019-04-10T01:50:04.407Z,-0.68
2019-04-10T01:52:39.380Z,-0.75
2019-04-10T01:55:20.156Z,-0.80
2019-04-10T01:57:47.058Z,-0.83
2019-04-10T02:00:23.953Z,-0.85
2019-04-10T02:02:56.510Z,-0.86
2019-04-10T02:05:30.281Z,-0.88
2019-04-10T02:08:08.610Z,-0.89
2019-04-10T02:10:38.467Z,-0.91
2019-04-10T02:13:11.488Z,-0.97
2019-04-10T02:15:44.119Z,-1.00
2019-04-10T02:18:17.248Z,-1.06
2019-04-10T02:20:50.094Z,-1.11
2019-04-10T02:23:22.767Z,-1.11
2019-04-10T02:25:55.333Z,-1.16
2019-04-10T02:28:29.060Z,-1.22
2019-04-10T02:31:02.873Z,-1.22
2019-04-10T02:33:35.839Z,-1.23
2019-04-10T02:36:08.537Z,-1.28
2019-04-10T02:38:55.379Z,-1.26
2019-04-10T02:41:15.052Z,-1.30
2019-04-10T02:43:47.996Z,-1.30
2019-04-10T02:46:22.009Z,-1.29
2019-04-10T02:48:55.996Z,-1.29
2019-04-10T02:51:30.484Z,-1.29
2019-04-10T02:54:04.764Z,-1.32
2019-04-10T02:56:37.117Z,-1.32
2019-04-10T02:59:11.066Z,-1.32
2019-04-10T03:01:44.035Z,-1.35
2019-04-10T03:04:16.626Z,-1.40
2019-04-10T03:06:51.564Z,-1.40
2019-04-10T03:09:37.164Z,-1.38
2019-04-10T03:11:59.526Z,-1.38
2019-04-10T03:14:32.714Z,-1.40
2019-04-10T03:17:06.021Z,-1.40
2019-04-10T03:19:38.697Z,-1.40
2019-04-10T03:22:12.370Z,-1.42
2019-04-10T03:24:45.154Z,-1.43
2019-04-10T03:27:19.092Z,-1.43
2019-04-10T03:29:51.978Z,-1.41
2019-04-10T03:32:40.656Z,-1.41
2019-04-10T03:35:28.583Z,-1.41
2019-04-10T03:38:01.554Z,-1.41
2019-04-10T03:40:35.450Z,-1.43
2019-04-10T03:43:08.173Z,-1.45
2019-04-10T03:45:41.092Z,-1.46
2019-04-10T03:48:15.842Z,-1.48
2019-04-10T03:50:48.539Z,-1.56
2019-04-10T03:53:22.299Z,-1.56
2019-04-10T03:55:57.128Z,-1.55
2019-04-10T03:58:29.960Z,-1.55
2019-04-10T04:01:02.797Z,-1.60
2019-04-10T04:03:35.180Z,-1.65
2019-04-10T04:06:09.022Z,-1.65
2019-04-10T04:08:41.629Z,-1.65
2019-04-10T04:11:14.181Z,-1.65
2019-04-10T04:13:47.932Z,-1.62
2019-04-10T04:16:22.690Z,-1.62
2019-04-10T04:18:59.760Z,-1.59
2019-04-10T04:21:32.590Z,-1.59
2019-04-10T04:24:05.152Z,-1.58
2019-04-10T04:26:37.733Z,-1.58
2019-04-10T04:29:10.289Z,-1.55
2019-04-10T04:31:42.490Z,-1.48
2019-04-10T04:34:15.244Z,-1.50
2019-04-10T04:36:49.131Z,-1.44
2019-04-10T04:39:26.237Z,-1.44
2019-04-10T04:41:56.382Z,-1.32
2019-04-10T04:44:29.271Z,-1.27
2019-04-10T04:47:02.036Z,-1.24
2019-04-10T04:49:35.731Z,-1.24
2019-04-10T04:52:10.386Z,-1.10
2019-04-10T04:54:43.500Z,-1.10
2019-04-10T04:57:17.021Z,-0.96
2019-04-10T04:59:50.566Z,-0.93
2019-04-10T05:02:23.522Z,-0.76
2019-04-10T05:05:00.305Z,-0.64
2019-04-10T05:07:35.505Z,-0.64
2019-04-10T05:10:09.586Z,-0.60
2019-04-10T05:12:43.248Z,-0.54
2019-04-10T05:15:17.165Z,-0.49
2019-04-10T05:17:49.734Z,-0.45
2019-04-10T05:20:23.200Z,-0.32
2019-04-10T05:22:56.033Z,-0.25
2019-04-10T05:25:29.379Z,-0.16
2019-04-10T05:28:02.282Z,-0.05
2019-04-10T05:30:35.708Z,0.01
2019-04-10T05:33:09.306Z,0.10
2019-04-10T05:35:41.934Z,0.25
2019-04-10T05:38:14.551Z,0.35
2019-04-10T05:40:47.024Z,0.49
2019-04-10T05:43:19.985Z,0.49
2019-04-10T05:45:53.006Z,0.57
2019-04-10T05:48:26.463Z,0.71
2019-04-10T05:51:02.988Z,0.82
2019-04-10T05:53:32.965Z,1.00
2019-04-10T05:56:05.664Z,1.09
2019-04-10T05:58:39.042Z,1.15
2019-04-10T06:01:11.595Z,1.35
2019-04-10T06:03:45.607Z,1.47
2019-04-10T06:06:17.886Z,1.42
2019-04-10T06:08:51.143Z,1.64
2019-04-10T06:11:24.601Z,1.76
2019-04-10T06:13:57.277Z,1.94
2019-04-10T06:16:30.308Z,2.04
2019-04-10T06:19:03.982Z,2.12
2019-04-10T06:21:37.617Z,2.30
2019-04-10T06:24:10.441Z,2.34
2019-04-10T06:26:43.477Z,2.46
2019-04-10T06:29:17.089Z,2.68
2019-04-10T06:31:50.237Z,2.75
2019-04-10T06:34:22.905Z,2.76
2019-04-10T06:36:55.606Z,2.77
2019-04-10T06:39:28.903Z,2.95
2019-04-10T06:42:02.517Z,3.19
2019-04-10T06:44:36.291Z,3.19
2019-04-10T06:47:09.847Z,3.29
2019-04-10T06:49:42.536Z,3.34
2019-04-10T06:52:15.048Z,3.48
2019-04-10T06:54:47.603Z,3.71
2019-04-10T06:57:20.808Z,3.97
2019-04-10T06:59:54.439Z,4.10
2019-04-10T07:02:30.665Z,4.08
2019-04-10T07:05:05.723Z,4.24
2019-04-10T07:07:49.507Z,4.25
2019-04-10T07:10:22.389Z,4.42
2019-04-10T07:12:45.781Z,4.63
2019-04-10T07:15:22.415Z,4.73
2019-04-10T07:17:53.414Z,4.80
2019-04-10T07:20:26.291Z,4.94
2019-04-10T07:22:59.579Z,4.97
2019-04-10T07:25:32.364Z,5.18
2019-04-10T07:28:08.781Z,5.57
2019-04-10T07:30:40.086Z,5.41
2019-04-10T07:33:14.895Z,5.60
2019-04-10T07:35:46.757Z,5.79
2019-04-10T07:38:21.354Z,6.14
2019-04-10T07:40:54.712Z,6.28
2019-04-10T07:44:12.069Z,6.23
2019-04-10T07:46:44.974Z,6.21
2019-04-10T07:49:19.336Z,6.61
2019-04-10T07:51:51.992Z,6.62
2019-04-10T07:54:26.659Z,6.37
2019-04-10T07:56:59.906Z,6.48
2019-04-10T07:59:33.403Z,6.69
2019-04-10T08:02:08.444Z,6.60
2019-04-10T08:05:20.971Z,6.62
2019-04-10T08:07:56.069Z,7.04
2019-04-10T08:10:28.866Z,7.18
2019-04-10T08:13:02.420Z,7.02
2019-04-10T08:15:37.610Z,6.97
2019-04-10T08:18:10.681Z,7.24
2019-04-10T08:20:43.167Z,6.96
2019-04-10T08:23:15.727Z,6.89
2019-04-10T08:25:47.824Z,7.25
2019-04-10T08:28:20.383Z,7.28
2019-04-10T08:30:52.567Z,7.40
2019-04-10T08:33:25.988Z,7.44
2019-04-10T08:35:58.993Z,7.45
2019-04-10T08:38:32.373Z,7.87
2019-04-10T08:41:05.265Z,7.90
2019-04-10T08:43:37.802Z,7.54
2019-04-10T08:46:10.882Z,7.67
2019-04-10T08:48:43.649Z,8.04
2019-04-10T08:51:17.057Z,8.02
2019-04-10T08:53:50.835Z,8.04
2019-04-10T08:56:24.750Z,8.23
2019-04-10T08:58:57.293Z,8.75
2019-04-10T09:01:31.500Z,8.23
2019-04-10T09:04:03.988Z,8.38
2019-04-10T09:06:37.681Z,9.03
2019-04-10T09:09:10.724Z,9.15
2019-04-10T09:11:43.286Z,9.10
2019-04-10T09:14:16.993Z,9.40
2019-04-10T09:16:49.686Z,9.16
2019-04-10T09:19:22.264Z,8.87
2019-04-10T09:21:55.402Z,9.03
2019-04-10T09:24:28.290Z,9.18
2019-04-10T09:27:01.244Z,9.85
2019-04-10T09:29:34.022Z,9.98
2019-04-10T09:32:06.667Z,9.55
2019-04-10T09:34:38.842Z,9.53
2019-04-10T09:37:13.476Z,9.23
2019-04-10T09:39:47.591Z,9.40
2019-04-10T09:42:21.531Z,9.77
2019-04-10T09:44:54.836Z,9.60
2019-04-10T09:47:27.407Z,8.49
2019-04-10T09:50:00.035Z,8.92
2019-04-10T09:52:32.455Z,9.55
2019-04-10T09:55:07.348Z,9.29
2019-04-10T09:57:40.896Z,9.83
2019-04-10T10:00:15.055Z,9.78
2019-04-10T10:02:50.723Z,9.68
2019-04-10T10:05:23.052Z,10.27
2019-04-10T10:07:56.206Z,10.64
2019-04-10T10:10:29.263Z,10.77
2019-04-10T10:13:01.729Z,10.80
2019-04-10T10:15:35.522Z,9.88
2019-04-10T10:18:08.853Z,10.23
2019-04-10T10:20:41.500Z,10.04
2019-04-10T10:23:14.079Z,9.87
2019-04-10T10:25:47.717Z,10.46
2019-04-10T10:28:20.835Z,10.64
2019-04-10T10:30:53.670Z,11.24
2019-04-10T10:33:26.325Z,10.85
2019-04-10T10:35:59.829Z,10.98
2019-04-10T10:38:32.500Z,10.78
2019-04-10T10:41:05.288Z,10.87
2019-04-10T10:43:37.793Z,11.20
2019-04-10T10:46:11.334Z,10.07
2019-04-10T10:48:44.185Z,10.05
2019-04-10T10:51:18.336Z,10.22
2019-04-10T10:53:52.508Z,10.77
2019-04-10T10:56:25.247Z,11.09
2019-04-10T10:58:58.938Z,10.83
2019-04-10T11:01:31.933Z,10.90
2019-04-10T11:04:04.928Z,10.87
2019-04-10T11:06:49.380Z,11.13
2019-04-10T11:09:14.280Z,11.63
2019-04-10T11:11:47.571Z,11.67
2019-04-10T11:14:21.505Z,11.92
2019-04-10T11:16:56.144Z,11.76
2019-04-10T11:19:29.015Z,11.53
2019-04-10T11:22:01.461Z,11.79
2019-04-10T11:24:35.334Z,11.65
2019-04-10T11:27:10.330Z,10.53
2019-04-10T11:29:45.394Z,11.37
2019-04-10T11:32:19.906Z,12.04
2019-04-10T11:34:52.897Z,11.41
2019-04-10T11:37:35.011Z,12.21
2019-04-10T11:40:01.210Z,12.28
2019-04-10T11:42:37.078Z,13.15
2019-04-10T11:45:14.418Z,11.76
2019-04-10T11:47:47.540Z,11.26
2019-04-10T11:50:21.936Z,10.48
2019-04-10T11:52:56.751Z,9.80
2019-04-10T11:55:29.756Z,11.05
2019-04-10T11:58:03.029Z,10.59
2019-04-10T12:00:51.012Z,11.55
2019-04-10T12:03:18.392Z,10.68
2019-04-10T12:05:52.546Z,11.42
2019-04-10T12:08:48.565Z,11.81
2019-04-10T12:13:32.409Z,12.20
2019-04-10T12:16:05.416Z,11.48
2019-04-10T12:18:38.408Z,11.10
2019-04-10T12:21:11.174Z,11.91
2019-04-10T12:23:43.571Z,12.02
2019-04-10T12:26:16.020Z,13.09
2019-04-10T12:28:50.017Z,14.05
2019-04-10T12:31:23.819Z,14.38
2019-04-10T12:33:56.978Z,13.95
2019-04-10T12:36:29.358Z,13.94
2019-04-10T12:39:01.977Z,12.83
2019-04-10T12:41:36.274Z,11.80
2019-04-10T12:44:09.592Z,13.07
2019-04-10T12:46:43.505Z,13.53
2019-04-10T12:49:17.126Z,14.45
2019-04-10T12:51:50.087Z,15.12
2019-04-10T12:54:23.766Z,14.90
2019-04-10T12:56:56.711Z,14.73
2019-04-10T12:59:29.456Z,13.83
2019-04-10T13:02:02.843Z,13.81
2019-04-10T13:04:36.866Z,13.88
2019-04-10T13:07:09.950Z,14.47
2019-04-10T13:09:42.223Z,13.88
2019-04-10T13:12:15.311Z,14.48
2019-04-10T13:14:48.585Z,14.58
2019-04-10T13:17:20.804Z,13.15
2019-04-10T13:19:53.452Z,13.72
2019-04-10T13:22:26.495Z,13.92
2019-04-10T13:24:59.625Z,14.51
2019-04-10T13:27:31.901Z,14.28
2019-04-10T13:30:07.020Z,15.08
2019-04-10T13:32:40.294Z,14.98
2019-04-10T13:35:13.686Z,14.18
2019-04-10T13:37:47.840Z,14.40
2019-04-10T13:40:21.545Z,13.76
2019-04-10T13:42:54.208Z,13.14
2019-04-10T13:45:27.105Z,12.25
2019-04-10T13:47:59.794Z,13.74
2019-04-10T13:50:32.758Z,12.55
2019-04-10T13:53:05.849Z,13.62
2019-04-10T13:55:38.428Z,14.36
2019-04-10T13:58:10.902Z,14.52
2019-04-10T14:00:45.108Z,15.08
2019-04-10T14:03:19.302Z,12.63
2019-04-10T14:05:52.909Z,11.72
2019-04-10T14:08:40.476Z,12.27
2019-04-10T14:11:00.593Z,13.96
2019-04-10T14:13:33.034Z,14.59
2019-04-10T14:16:06.822Z,14.65
2019-04-10T14:18:39.301Z,14.76
2019-04-10T14:21:15.618Z,15.19
2019-04-10T14:23:47.235Z,15.43
2019-04-10T14:26:39.166Z,16.21
2019-04-10T14:29:01.716Z,14.78
2019-04-10T14:31:36.279Z,14.74
2019-04-10T14:34:08.888Z,15.74
2019-04-10T14:36:42.198Z,15.30
2019-04-10T14:39:19.582Z,15.38
2019-04-10T14:41:50.513Z,13.18
2019-04-10T14:44:23.314Z,12.06
2019-04-10T14:46:56.078Z,10.45
2019-04-10T14:49:29.297Z,12.40
2019-04-10T14:52:03.076Z,13.44
2019-04-10T14:54:35.856Z,10.99
2019-04-10T14:57:08.532Z,12.83
2019-04-10T14:59:42.256Z,13.65
2019-04-10T15:02:14.916Z,13.43
2019-04-10T15:04:47.388Z,14.36
2019-04-10T15:07:21.864Z,11.58
2019-04-10T15:09:55.921Z,10.20
2019-04-10T15:12:28.498Z,11.56
2019-04-10T15:15:01.720Z,12.64
2019-04-10T15:17:35.199Z,13.70
2019-04-10T15:20:07.769Z,14.13
2019-04-10T15:22:40.345Z,14.23
2019-04-10T15:25:13.040Z,13.59
2019-04-10T15:27:46.001Z,13.51
2019-04-10T15:30:18.793Z,13.97
2019-04-10T15:32:50.973Z,14.23
2019-04-10T15:35:24.366Z,13.44
2019-04-10T15:37:57.772Z,12.62
2019-04-10T15:40:30.553Z,11.82
2019-04-10T15:43:03.118Z,10.74
2019-04-10T15:45:35.810Z,10.04
2019-04-10T15:48:08.387Z,10.11
2019-04-10T15:50:41.446Z,12.22
2019-04-10T15:53:14.335Z,12.93
2019-04-10T15:55:47.601Z,12.67
2019-04-10T15:58:21.542Z,12.85
2019-04-10T16:00:54.425Z,12.27
2019-04-10T16:03:28.133Z,12.66
2019-04-10T16:06:00.856Z,11.33
2019-04-10T16:08:34.431Z,9.62
2019-04-10T16:11:15.587Z,8.59
2019-04-10T16:13:49.703Z,8.35
2019-04-10T16:16:27.368Z,8.05
2019-04-10T16:19:04.371Z,8.45
2019-04-10T16:21:37.980Z,8.54
2019-04-10T16:24:12.335Z,10.44
2019-04-10T16:26:44.872Z,9.87
2019-04-10T16:29:18.124Z,9.46
2019-04-10T16:31:53.086Z,10.21
2019-04-10T16:34:25.470Z,10.50
2019-04-10T16:36:57.948Z,10.78
2019-04-10T16:39:30.516Z,10.88
2019-04-10T16:42:03.128Z,11.09
2019-04-10T16:44:35.880Z,11.52
2019-04-10T16:47:08.360Z,11.76
2019-04-10T16:49:41.234Z,11.16
2019-04-10T16:52:14.585Z,11.46
2019-04-10T16:54:47.310Z,10.79
2019-04-10T16:57:20.683Z,10.60
2019-04-10T16:59:53.486Z,9.91
2019-04-10T17:02:26.347Z,9.64
2019-04-10T17:05:00.499Z,8.92
2019-04-10T17:07:34.873Z,8.49
2019-04-10T17:10:16.516Z,7.66
2019-04-10T17:12:44.730Z,7.16
2019-04-10T17:15:17.975Z,6.63
2019-04-10T17:17:50.683Z,6.35
2019-04-10T17:20:24.850Z,6.14
2019-04-10T17:22:58.386Z,5.89
2019-04-10T17:25:31.903Z,5.79
2019-04-10T17:28:05.214Z,5.64
2019-04-10T17:30:39.977Z,5.54
2019-04-10T17:33:13.864Z,5.36
2019-04-10T17:35:48.238Z,5.25
2019-04-10T17:38:22.593Z,5.18
2019-04-10T17:40:58.902Z,5.09
2019-04-10T17:43:35.113Z,4.94
2019-04-10T17:46:09.417Z,4.89
2019-04-10T17:48:44.566Z,4.84
2019-04-10T17:51:17.840Z,4.75
2019-04-10T17:53:50.460Z,4.67
2019-04-10T17:56:24.582Z,4.63
2019-04-10T17:58:56.696Z,4.58
2019-04-10T18:01:29.330Z,4.52
2019-04-10T18:04:05.488Z,4.47
2019-04-10T18:06:39.481Z,4.39
2019-04-10T18:09:12.068Z,4.32
2019-04-10T18:11:45.684Z,4.26
2019-04-10T18:14:19.581Z,4.26
2019-04-10T18:16:52.188Z,4.18
2019-04-10T18:19:27.403Z,4.09
2019-04-10T18:22:00.518Z,4.05
2019-04-10T18:24:33.370Z,4.00
2019-04-10T18:27:05.810Z,3.97
2019-04-10T18:29:39.300Z,3.92
2019-04-10T18:32:11.803Z,3.86
2019-04-10T18:34:44.727Z,3.81
2019-04-10T18:37:20.632Z,3.74
2019-04-10T18:39:51.187Z,3.74
2019-04-10T18:42:24.366Z,3.69
2019-04-10T18:44:57.506Z,3.62
2019-04-10T18:47:32.365Z,3.54
2019-04-10T18:50:06.412Z,3.45
2019-04-10T18:52:39.282Z,3.36
2019-04-10T18:55:14.323Z,3.28
2019-04-10T18:57:47.304Z,3.20
2019-04-10T19:00:38.593Z,3.16
2019-04-10T19:03:18.887Z,3.09
2019-04-10T19:05:54.089Z,3.02
2019-04-10T19:08:28.014Z,2.96
2019-04-10T19:11:10.560Z,2.91
2019-04-10T19:13:34.810Z,2.88
2019-04-10T19:16:07.606Z,2.79
2019-04-10T19:18:40.193Z,2.75
2019-04-10T19:21:13.272Z,2.73
2019-04-10T19:23:45.951Z,2.71
2019-04-10T19:26:21.051Z,2.65
2019-04-10T19:28:54.612Z,2.62
2019-04-10T19:31:29.787Z,2.54
2019-04-10T19:34:03.282Z,2.49
2019-04-10T19:36:36.216Z,2.44
2019-04-10T19:39:10.218Z,2.40
2019-04-10T19:41:42.328Z,2.36
2019-04-10T19:44:15.053Z,2.31
2019-04-10T19:46:48.358Z,2.27
2019-04-10T19:49:21.795Z,2.29
2019-04-10T19:51:54.636Z,2.22
2019-04-10T19:54:26.837Z,2.21
2019-04-10T19:56:59.384Z,2.17
2019-04-10T19:59:32.065Z,2.15
2019-04-10T20:02:04.586Z,2.14
2019-04-10T20:04:48.504Z,2.08
2019-04-10T20:07:25.052Z,2.08
2019-04-10T20:09:58.946Z,2.07
2019-04-10T20:12:32.837Z,2.02
2019-04-10T20:15:14.018Z,2.02
2019-04-10T20:17:48.339Z,1.99
2019-04-10T20:20:23.569Z,1.91
2019-04-10T20:22:58.301Z,1.89
2019-04-10T20:25:32.414Z,1.95
2019-04-10T20:28:05.325Z,1.94
2019-04-10T20:30:40.450Z,1.91
2019-04-10T20:33:14.485Z,1.84
2019-04-10T20:35:47.274Z,1.79
2019-04-10T20:38:20.859Z,1.75
2019-04-10T20:40:54.036Z,1.71
2019-04-10T20:43:32.672Z,1.69
2019-04-10T20:46:09.845Z,1.68
2019-04-10T20:48:43.040Z,1.67
2019-04-10T20:51:16.582Z,1.64
2019-04-10T20:53:50.544Z,1.61
2019-04-10T20:56:24.258Z,1.57
2019-04-10T20:58:57.233Z,1.53
2019-04-10T21:01:30.919Z,1.46
2019-04-10T21:04:03.731Z,1.42
2019-04-10T21:06:39.133Z,1.40
2019-04-10T21:09:11.636Z,1.40
2019-04-10T21:11:58.852Z,1.40
2019-04-10T21:14:19.194Z,1.47
2019-04-10T21:16:52.132Z,1.47
2019-04-10T21:19:24.914Z,1.52
2019-04-10T21:21:57.699Z,1.50
2019-04-10T21:24:30.169Z,1.48
2019-04-10T21:27:03.574Z,1.47
2019-04-10T21:29:54.821Z,1.43
2019-04-10T21:32:28.194Z,1.45
2019-04-10T21:35:02.172Z,1.46
2019-04-10T21:37:34.762Z,1.48
2019-04-10T21:40:08.177Z,1.48
2019-04-10T21:42:41.279Z,1.48
2019-04-10T21:45:14.139Z,1.47
2019-04-10T21:47:46.716Z,1.41
2019-04-10T21:50:20.022Z,1.37
2019-04-10T21:52:52.787Z,1.30
2019-04-10T21:55:25.266Z,1.25
2019-04-10T21:57:57.945Z,1.25
2019-04-10T22:00:49.210Z,1.19
2019-04-10T22:03:22.551Z,1.20
2019-04-10T22:06:03.610Z,1.17
2019-04-10T22:08:41.412Z,1.12
2019-04-10T22:11:14.821Z,1.12
2019-04-10T22:13:48.606Z,1.12
2019-04-10T22:16:23.924Z,1.10
2019-04-10T22:18:56.849Z,1.12
2019-04-10T22:21:29.738Z,1.10
2019-04-10T22:24:02.315Z,1.07
2019-04-10T22:26:34.797Z,1.07
2019-04-10T22:29:07.689Z,1.05
2019-04-10T22:31:41.564Z,1.03
2019-04-10T22:34:14.364Z,0.99
2019-04-10T22:36:47.189Z,0.97
2019-04-10T22:39:20.912Z,0.96
2019-04-10T22:41:53.321Z,0.92
2019-04-10T22:44:34.721Z,0.87
2019-04-10T22:47:00.969Z,0.86
2019-04-10T22:49:34.885Z,0.83
2019-04-10T22:52:08.847Z,0.77
2019-04-10T22:54:42.295Z,0.72
2019-04-10T22:57:15.027Z,0.70
2019-04-10T22:59:48.783Z,0.73
2019-04-10T23:02:21.617Z,0.73
2019-04-10T23:04:54.295Z,0.74
2019-04-10T23:07:27.945Z,0.77
2019-04-10T23:10:00.982Z,0.83
2019-04-10T23:12:34.586Z,0.84
2019-04-10T23:15:13.375Z,0.80
2019-04-10T23:17:45.827Z,0.80
2019-04-10T23:20:18.715Z,0.76
2019-04-10T23:22:52.607Z,0.72
2019-04-10T23:25:26.552Z,0.66
2019-04-10T23:28:00.978Z,0.64
2019-04-10T23:30:35.126Z,0.62
2019-04-10T23:33:08.118Z,0.60
2019-04-10T23:35:41.308Z,0.53
2019-04-10T23:38:15.205Z,0.53
2019-04-10T23:40:49.311Z,0.47
2019-04-10T23:43:22.743Z,0.40
2019-04-10T23:45:56.410Z,0.40
2019-04-10T23:48:28.890Z,0.38
2019-04-10T23:51:01.458Z,0.28
2019-04-10T23:53:33.938Z,0.14
2019-04-10T23:56:06.513Z,0.04
2019-04-10T23:58:38.640Z,-0.04
